sensor_id;sensor_type;location;lat;lon;timestamp;temperature;humidity
14511;DHT22;7341;50.930;4.038;2022-12-26T00:02:26;10.90;99.90
14511;DHT22;7341;50.930;4.038;2022-12-26T00:04:53;11.00;99.90
14511;DHT22;7341;50.930;4.038;2022-12-26T00:07:20;11.00;99.90
14511;DHT22;7341;50.930;4.038;2022-12-26T00:09:49;10.90;99.90
14511;DHT22;7341;50.930;4.038;2022-12-26T00:12:35;11.00;99.90
14511;DHT22;7341;50.930;4.038;2022-12-26T00:24:36;10.70;99.90
14511;DHT22;7341;50.930;4.038;2022-12-26T00:27:23;10.60;99.90
14511;DHT22;7341;50.930;4.038;2022-12-26T00:29:51;10.60;99.90
14511;DHT22;7341;50.930;4.038;2022-12-26T00:32:18;10.70;99.90
14511;DHT22;7341;50.930;4.038;2022-12-26T00:34:46;10.60;99.90
14511;DHT22;7341;50.930;4.038;2022-12-26T00:37:14;10.60;99.90
14511;DHT22;7341;50.930;4.038;2022-12-26T00:39:41;10.60;99.90
14511;DHT22;7341;50.930;4.038;2022-12-26T00:42:08;10.60;99.90
14511;DHT22;7341;50.930;4.038;2022-12-26T00:44:34;10.60;99.90
14511;DHT22;7341;50.930;4.038;2022-12-26T00:47:19;10.70;99.90
14511;DHT22;7341;50.930;4.038;2022-12-26T00:49:46;10.70;99.90
14511;DHT22;7341;50.930;4.038;2022-12-26T00:52:13;10.60;99.90
14511;DHT22;7341;50.930;4.038;2022-12-26T00:54:40;10.60;99.90
14511;DHT22;7341;50.930;4.038;2022-12-26T00:57:07;10.80;99.90
14511;DHT22;7341;50.930;4.038;2022-12-26T00:59:34;10.70;99.90
14511;DHT22;7341;50.930;4.038;2022-12-26T01:02:01;10.60;99.90
14511;DHT22;7341;50.930;4.038;2022-12-26T01:04:53;10.70;99.90
14511;DHT22;7341;50.930;4.038;2022-12-26T01:07:24;10.60;99.90
14511;DHT22;7341;50.930;4.038;2022-12-26T01:09:52;10.60;99.90
14511;DHT22;7341;50.930;4.038;2022-12-26T01:12:20;10.50;99.90
14511;DHT22;7341;50.930;4.038;2022-12-26T01:14:54;10.50;99.90
14511;DHT22;7341;50.930;4.038;2022-12-26T01:17:24;10.50;99.90
14511;DHT22;7341;50.930;4.038;2022-12-26T01:19:52;10.40;99.90
14511;DHT22;7341;50.930;4.038;2022-12-26T01:22:19;10.40;99.90
14511;DHT22;7341;50.930;4.038;2022-12-26T01:25:05;10.40;99.90
14511;DHT22;7341;50.930;4.038;2022-12-26T01:27:36;10.50;99.90
14511;DHT22;7341;50.930;4.038;2022-12-26T01:30:05;10.40;99.90
14511;DHT22;7341;50.930;4.038;2022-12-26T01:32:32;10.30;99.90
14511;DHT22;7341;50.930;4.038;2022-12-26T01:35:01;10.30;99.90
14511;DHT22;7341;50.930;4.038;2022-12-26T01:37:29;10.30;99.90
14511;DHT22;7341;50.930;4.038;2022-12-26T01:39:56;10.30;99.90
14511;DHT22;7341;50.930;4.038;2022-12-26T01:42:24;10.30;99.90
14511;DHT22;7341;50.930;4.038;2022-12-26T01:45:20;10.30;99.90
14511;DHT22;7341;50.930;4.038;2022-12-26T01:47:50;10.30;99.90
14511;DHT22;7341;50.930;4.038;2022-12-26T01:50:29;10.20;99.90
14511;DHT22;7341;50.930;4.038;2022-12-26T01:53:02;10.40;99.90
14511;DHT22;7341;50.930;4.038;2022-12-26T01:55:31;10.30;99.90
14511;DHT22;7341;50.930;4.038;2022-12-26T01:58:13;10.30;99.90
14511;DHT22;7341;50.930;4.038;2022-12-26T02:00:47;10.30;99.90
14511;DHT22;7341;50.930;4.038;2022-12-26T02:03:15;10.20;99.90
14511;DHT22;7341;50.930;4.038;2022-12-26T02:06:02;10.20;99.90
14511;DHT22;7341;50.930;4.038;2022-12-26T02:08:31;10.20;99.90
14511;DHT22;7341;50.930;4.038;2022-12-26T02:11:09;10.10;99.90
14511;DHT22;7341;50.930;4.038;2022-12-26T02:13:38;10.10;99.90
14511;DHT22;7341;50.930;4.038;2022-12-26T02:16:07;10.00;99.90
14511;DHT22;7341;50.930;4.038;2022-12-26T02:18:40;10.00;99.90
14511;DHT22;7341;50.930;4.038;2022-12-26T02:21:32;10.00;99.90
14511;DHT22;7341;50.930;4.038;2022-12-26T02:24:56;10.00;99.90
14511;DHT22;7341;50.930;4.038;2022-12-26T02:27:44;9.90;99.90
14511;DHT22;7341;50.930;4.038;2022-12-26T02:30:36;9.90;99.90
14511;DHT22;7341;50.930;4.038;2022-12-26T02:33:21;9.80;99.90
14511;DHT22;7341;50.930;4.038;2022-12-26T02:36:27;9.90;99.90
14511;DHT22;7341;50.930;4.038;2022-12-26T02:39:04;9.90;99.90
14511;DHT22;7341;50.930;4.038;2022-12-26T02:41:43;10.00;99.90
14511;DHT22;7341;50.930;4.038;2022-12-26T02:44:19;9.90;99.90
14511;DHT22;7341;50.930;4.038;2022-12-26T02:47:10;9.90;99.90
14511;DHT22;7341;50.930;4.038;2022-12-26T02:49:59;9.90;99.90
14511;DHT22;7341;50.930;4.038;2022-12-26T02:52:59;9.90;99.90
14511;DHT22;7341;50.930;4.038;2022-12-26T02:55:49;9.90;99.90
14511;DHT22;7341;50.930;4.038;2022-12-26T02:58:41;9.90;99.90
14511;DHT22;7341;50.930;4.038;2022-12-26T03:01:30;9.80;99.90
14511;DHT22;7341;50.930;4.038;2022-12-26T03:04:18;9.80;99.90
14511;DHT22;7341;50.930;4.038;2022-12-26T03:07:11;9.80;99.90
14511;DHT22;7341;50.930;4.038;2022-12-26T03:10:05;9.80;99.90
14511;DHT22;7341;50.930;4.038;2022-12-26T03:13:00;9.80;99.90
14511;DHT22;7341;50.930;4.038;2022-12-26T03:15:44;9.80;99.90
14511;DHT22;7341;50.930;4.038;2022-12-26T03:18:30;9.80;99.90
14511;DHT22;7341;50.930;4.038;2022-12-26T03:21:04;9.80;99.90
14511;DHT22;7341;50.930;4.038;2022-12-26T03:23:38;9.80;99.90
14511;DHT22;7341;50.930;4.038;2022-12-26T03:26:10;9.80;99.90
14511;DHT22;7341;50.930;4.038;2022-12-26T03:28:55;9.90;99.90
14511;DHT22;7341;50.930;4.038;2022-12-26T03:31:42;9.80;99.90
14511;DHT22;7341;50.930;4.038;2022-12-26T03:34:10;9.80;99.90
14511;DHT22;7341;50.930;4.038;2022-12-26T03:37:35;9.80;99.90
14511;DHT22;7341;50.930;4.038;2022-12-26T03:40:14;9.90;99.90
14511;DHT22;7341;50.930;4.038;2022-12-26T03:43:08;9.90;99.90
14511;DHT22;7341;50.930;4.038;2022-12-26T03:46:00;9.90;99.90
14511;DHT22;7341;50.930;4.038;2022-12-26T03:48:55;10.00;99.90
14511;DHT22;7341;50.930;4.038;2022-12-26T03:51:55;10.00;99.90
14511;DHT22;7341;50.930;4.038;2022-12-26T03:54:49;10.10;99.90
14511;DHT22;7341;50.930;4.038;2022-12-26T03:57:39;10.10;99.90
14511;DHT22;7341;50.930;4.038;2022-12-26T04:00:26;10.10;99.90
14511;DHT22;7341;50.930;4.038;2022-12-26T04:03:13;10.10;99.90
14511;DHT22;7341;50.930;4.038;2022-12-26T04:06:01;10.10;99.90
14511;DHT22;7341;50.930;4.038;2022-12-26T04:08:50;10.10;99.90
14511;DHT22;7341;50.930;4.038;2022-12-26T04:12:03;10.20;99.90
14511;DHT22;7341;50.930;4.038;2022-12-26T04:14:53;10.20;99.90
14511;DHT22;7341;50.930;4.038;2022-12-26T04:17:45;10.20;99.90
14511;DHT22;7341;50.930;4.038;2022-12-26T04:20:36;10.30;99.90
14511;DHT22;7341;50.930;4.038;2022-12-26T04:23:11;10.30;99.90
14511;DHT22;7341;50.930;4.038;2022-12-26T04:26:03;10.20;99.90
14511;DHT22;7341;50.930;4.038;2022-12-26T04:28:52;10.20;99.90
14511;DHT22;7341;50.930;4.038;2022-12-26T04:31:41;10.20;99.90
14511;DHT22;7341;50.930;4.038;2022-12-26T04:34:29;10.20;99.90
14511;DHT22;7341;50.930;4.038;2022-12-26T04:37:20;10.20;99.90
14511;DHT22;7341;50.930;4.038;2022-12-26T04:40:11;10.20;99.90
14511;DHT22;7341;50.930;4.038;2022-12-26T04:42:58;10.40;99.90
14511;DHT22;7341;50.930;4.038;2022-12-26T04:45:44;10.50;99.90
14511;DHT22;7341;50.930;4.038;2022-12-26T04:48:11;10.50;99.90
14511;DHT22;7341;50.930;4.038;2022-12-26T04:50:55;10.50;99.90
14511;DHT22;7341;50.930;4.038;2022-12-26T04:53:22;10.50;99.90
14511;DHT22;7341;50.930;4.038;2022-12-26T04:55:50;10.50;99.90
14511;DHT22;7341;50.930;4.038;2022-12-26T04:58:17;10.50;99.90
14511;DHT22;7341;50.930;4.038;2022-12-26T05:00:45;10.60;99.90
14511;DHT22;7341;50.930;4.038;2022-12-26T05:03:13;10.60;99.90
14511;DHT22;7341;50.930;4.038;2022-12-26T05:05:57;10.60;99.90
14511;DHT22;7341;50.930;4.038;2022-12-26T05:08:43;10.60;99.90
14511;DHT22;7341;50.930;4.038;2022-12-26T05:11:48;10.60;99.90
14511;DHT22;7341;50.930;4.038;2022-12-26T05:14:29;10.60;99.90
14511;DHT22;7341;50.930;4.038;2022-12-26T05:16:58;10.60;99.90
14511;DHT22;7341;50.930;4.038;2022-12-26T05:19:42;10.60;99.90
14511;DHT22;7341;50.930;4.038;2022-12-26T05:22:29;10.70;99.90
14511;DHT22;7341;50.930;4.038;2022-12-26T05:25:17;10.70;99.90
14511;DHT22;7341;50.930;4.038;2022-12-26T05:28:15;10.70;99.90
14511;DHT22;7341;50.930;4.038;2022-12-26T05:30:59;10.60;99.90
14511;DHT22;7341;50.930;4.038;2022-12-26T05:33:28;10.60;99.90
14511;DHT22;7341;50.930;4.038;2022-12-26T05:36:14;10.50;99.90
14511;DHT22;7341;50.930;4.038;2022-12-26T05:38:42;10.60;99.90
14511;DHT22;7341;50.930;4.038;2022-12-26T05:41:09;10.50;99.90
14511;DHT22;7341;50.930;4.038;2022-12-26T05:43:37;10.50;99.90
14511;DHT22;7341;50.930;4.038;2022-12-26T05:46:04;10.70;99.90
14511;DHT22;7341;50.930;4.038;2022-12-26T05:48:34;10.60;99.90
14511;DHT22;7341;50.930;4.038;2022-12-26T05:51:02;10.60;99.90
14511;DHT22;7341;50.930;4.038;2022-12-26T05:53:30;10.60;99.90
14511;DHT22;7341;50.930;4.038;2022-12-26T05:56:01;10.60;99.90
14511;DHT22;7341;50.930;4.038;2022-12-26T05:58:33;10.50;99.90
14511;DHT22;7341;50.930;4.038;2022-12-26T06:01:05;10.60;99.90
14511;DHT22;7341;50.930;4.038;2022-12-26T06:03:51;10.60;99.90
14511;DHT22;7341;50.930;4.038;2022-12-26T06:06:19;10.60;99.90
14511;DHT22;7341;50.930;4.038;2022-12-26T06:08:47;10.60;99.90
14511;DHT22;7341;50.930;4.038;2022-12-26T06:11:15;10.60;99.90
14511;DHT22;7341;50.930;4.038;2022-12-26T06:13:43;10.60;99.90
14511;DHT22;7341;50.930;4.038;2022-12-26T06:16:12;10.70;99.90
14511;DHT22;7341;50.930;4.038;2022-12-26T06:18:41;10.80;99.90
14511;DHT22;7341;50.930;4.038;2022-12-26T06:21:24;10.70;99.90
14511;DHT22;7341;50.930;4.038;2022-12-26T06:23:51;10.70;99.90
14511;DHT22;7341;50.930;4.038;2022-12-26T06:26:19;10.70;99.90
14511;DHT22;7341;50.930;4.038;2022-12-26T06:28:52;10.70;99.90
14511;DHT22;7341;50.930;4.038;2022-12-26T06:31:24;10.80;99.90
14511;DHT22;7341;50.930;4.038;2022-12-26T06:33:57;10.70;99.90
14511;DHT22;7341;50.930;4.038;2022-12-26T06:36:56;10.80;99.90
14511;DHT22;7341;50.930;4.038;2022-12-26T06:39:25;10.80;99.90
14511;DHT22;7341;50.930;4.038;2022-12-26T06:41:52;10.80;99.90
14511;DHT22;7341;50.930;4.038;2022-12-26T06:44:21;10.80;99.90
14511;DHT22;7341;50.930;4.038;2022-12-26T06:46:48;10.80;99.90
14511;DHT22;7341;50.930;4.038;2022-12-26T06:49:15;10.80;99.90
14511;DHT22;7341;50.930;4.038;2022-12-26T06:51:42;10.70;99.90
14511;DHT22;7341;50.930;4.038;2022-12-26T06:54:11;10.70;99.90
14511;DHT22;7341;50.930;4.038;2022-12-26T06:56:38;10.60;99.90
14511;DHT22;7341;50.930;4.038;2022-12-26T06:59:06;10.60;99.90
14511;DHT22;7341;50.930;4.038;2022-12-26T07:01:35;10.50;99.90
14511;DHT22;7341;50.930;4.038;2022-12-26T07:04:02;10.50;99.90
14511;DHT22;7341;50.930;4.038;2022-12-26T07:06:32;10.50;99.90
14511;DHT22;7341;50.930;4.038;2022-12-26T07:09:05;10.50;99.90
14511;DHT22;7341;50.930;4.038;2022-12-26T07:11:36;10.40;99.90
14511;DHT22;7341;50.930;4.038;2022-12-26T07:14:04;10.60;99.90
14511;DHT22;7341;50.930;4.038;2022-12-26T07:16:36;10.40;99.90
14511;DHT22;7341;50.930;4.038;2022-12-26T07:19:04;10.40;99.90
14511;DHT22;7341;50.930;4.038;2022-12-26T07:21:32;10.60;99.90
14511;DHT22;7341;50.930;4.038;2022-12-26T07:23:59;10.50;99.90
14511;DHT22;7341;50.930;4.038;2022-12-26T07:26:26;10.70;99.90
14511;DHT22;7341;50.930;4.038;2022-12-26T07:28:55;10.50;99.90
14511;DHT22;7341;50.930;4.038;2022-12-26T07:31:23;10.50;99.90
14511;DHT22;7341;50.930;4.038;2022-12-26T07:33:54;10.60;99.90
14511;DHT22;7341;50.930;4.038;2022-12-26T07:36:23;10.60;99.90
14511;DHT22;7341;50.930;4.038;2022-12-26T07:38:54;10.50;99.90
14511;DHT22;7341;50.930;4.038;2022-12-26T07:41:23;10.40;99.90
14511;DHT22;7341;50.930;4.038;2022-12-26T07:44:10;10.40;99.90
14511;DHT22;7341;50.930;4.038;2022-12-26T07:46:37;10.40;99.90
14511;DHT22;7341;50.930;4.038;2022-12-26T07:49:04;10.40;99.90
14511;DHT22;7341;50.930;4.038;2022-12-26T07:51:32;10.30;99.90
14511;DHT22;7341;50.930;4.038;2022-12-26T07:54:01;10.30;99.90
14511;DHT22;7341;50.930;4.038;2022-12-26T07:56:33;10.40;99.90
14511;DHT22;7341;50.930;4.038;2022-12-26T07:59:01;10.40;99.90
14511;DHT22;7341;50.930;4.038;2022-12-26T08:01:44;10.40;99.90
14511;DHT22;7341;50.930;4.038;2022-12-26T08:04:12;10.40;99.90
14511;DHT22;7341;50.930;4.038;2022-12-26T08:06:40;10.40;99.90
14511;DHT22;7341;50.930;4.038;2022-12-26T08:09:12;10.40;99.90
14511;DHT22;7341;50.930;4.038;2022-12-26T08:11:41;10.30;99.90
14511;DHT22;7341;50.930;4.038;2022-12-26T08:14:11;10.30;99.90
14511;DHT22;7341;50.930;4.038;2022-12-26T08:16:40;10.40;99.90
14511;DHT22;7341;50.930;4.038;2022-12-26T08:19:08;10.40;99.90
14511;DHT22;7341;50.930;4.038;2022-12-26T08:21:36;10.40;99.90
14511;DHT22;7341;50.930;4.038;2022-12-26T08:24:04;10.40;99.90
14511;DHT22;7341;50.930;4.038;2022-12-26T08:26:31;10.40;99.90
14511;DHT22;7341;50.930;4.038;2022-12-26T08:28:59;10.50;99.90
14511;DHT22;7341;50.930;4.038;2022-12-26T08:31:26;10.50;99.90
14511;DHT22;7341;50.930;4.038;2022-12-26T08:33:56;10.40;99.90
14511;DHT22;7341;50.930;4.038;2022-12-26T08:36:23;10.50;99.90
14511;DHT22;7341;50.930;4.038;2022-12-26T08:38:52;10.50;99.90
14511;DHT22;7341;50.930;4.038;2022-12-26T08:41:34;10.40;99.90
14511;DHT22;7341;50.930;4.038;2022-12-26T08:44:32;10.40;99.90
14511;DHT22;7341;50.930;4.038;2022-12-26T08:47:34;10.50;99.90
14511;DHT22;7341;50.930;4.038;2022-12-26T08:56:57;10.40;99.90
14511;DHT22;7341;50.930;4.038;2022-12-26T09:00:00;10.30;99.90
14511;DHT22;7341;50.930;4.038;2022-12-26T09:03:17;10.10;99.90
14511;DHT22;7341;50.930;4.038;2022-12-26T09:06:23;10.10;99.90
14511;DHT22;7341;50.930;4.038;2022-12-26T09:12:55;10.10;99.90
14511;DHT22;7341;50.930;4.038;2022-12-26T09:15:33;10.10;99.90
14511;DHT22;7341;50.930;4.038;2022-12-26T09:18:16;10.10;99.90
14511;DHT22;7341;50.930;4.038;2022-12-26T09:21:22;10.10;99.90
14511;DHT22;7341;50.930;4.038;2022-12-26T09:27:41;10.10;99.90
14511;DHT22;7341;50.930;4.038;2022-12-26T09:37:09;10.10;99.90
14511;DHT22;7341;50.930;4.038;2022-12-26T09:39:39;10.10;99.90
14511;DHT22;7341;50.930;4.038;2022-12-26T09:42:56;10.10;99.90
14511;DHT22;7341;50.930;4.038;2022-12-26T09:49:36;10.20;99.90
14511;DHT22;7341;50.930;4.038;2022-12-26T09:55:52;10.20;99.90
14511;DHT22;7341;50.930;4.038;2022-12-26T09:58:25;10.20;99.90
14511;DHT22;7341;50.930;4.038;2022-12-26T10:01:27;10.20;99.90
14511;DHT22;7341;50.930;4.038;2022-12-26T10:04:12;10.20;99.90
14511;DHT22;7341;50.930;4.038;2022-12-26T10:07:16;10.20;99.90
14511;DHT22;7341;50.930;4.038;2022-12-26T10:10:35;10.10;99.90
14511;DHT22;7341;50.930;4.038;2022-12-26T10:13:09;10.20;99.90
14511;DHT22;7341;50.930;4.038;2022-12-26T10:15:47;10.20;99.90
14511;DHT22;7341;50.930;4.038;2022-12-26T10:18:30;10.30;99.90
14511;DHT22;7341;50.930;4.038;2022-12-26T10:21:23;10.20;99.90
14511;DHT22;7341;50.930;4.038;2022-12-26T10:24:11;10.30;99.90
14511;DHT22;7341;50.930;4.038;2022-12-26T10:26:45;10.20;99.90
14511;DHT22;7341;50.930;4.038;2022-12-26T10:36:29;9.60;99.90
14511;DHT22;7341;50.930;4.038;2022-12-26T10:38:59;9.50;99.90
14511;DHT22;7341;50.930;4.038;2022-12-26T10:41:37;9.50;99.90
14511;DHT22;7341;50.930;4.038;2022-12-26T10:44:13;9.50;99.90
14511;DHT22;7341;50.930;4.038;2022-12-26T10:47:15;9.60;99.90
14511;DHT22;7341;50.930;4.038;2022-12-26T10:50:01;9.50;99.90
14511;DHT22;7341;50.930;4.038;2022-12-26T10:52:37;9.50;99.90
14511;DHT22;7341;50.930;4.038;2022-12-26T10:55:05;9.50;99.90
14511;DHT22;7341;50.930;4.038;2022-12-26T10:57:34;9.50;99.90
14511;DHT22;7341;50.930;4.038;2022-12-26T11:00:21;9.30;99.90
14511;DHT22;7341;50.930;4.038;2022-12-26T11:03:05;9.40;99.90
14511;DHT22;7341;50.930;4.038;2022-12-26T11:05:32;9.30;99.90
14511;DHT22;7341;50.930;4.038;2022-12-26T11:08:08;9.60;99.90
14511;DHT22;7341;50.930;4.038;2022-12-26T11:10:43;9.40;99.90
14511;DHT22;7341;50.930;4.038;2022-12-26T11:13:18;9.40;99.90
14511;DHT22;7341;50.930;4.038;2022-12-26T11:15:48;9.40;99.90
14511;DHT22;7341;50.930;4.038;2022-12-26T11:18:18;9.40;99.90
14511;DHT22;7341;50.930;4.038;2022-12-26T11:20:46;9.40;99.90
14511;DHT22;7341;50.930;4.038;2022-12-26T11:23:24;9.30;99.90
14511;DHT22;7341;50.930;4.038;2022-12-26T11:25:53;9.20;99.90
14511;DHT22;7341;50.930;4.038;2022-12-26T11:28:29;9.30;99.90
14511;DHT22;7341;50.930;4.038;2022-12-26T11:30:58;9.50;99.90
14511;DHT22;7341;50.930;4.038;2022-12-26T11:33:28;9.30;99.90
14511;DHT22;7341;50.930;4.038;2022-12-26T11:36:07;9.20;99.90
14511;DHT22;7341;50.930;4.038;2022-12-26T11:38:47;9.20;99.90
14511;DHT22;7341;50.930;4.038;2022-12-26T11:41:18;9.10;99.90
14511;DHT22;7341;50.930;4.038;2022-12-26T11:44:02;9.10;99.90
14511;DHT22;7341;50.930;4.038;2022-12-26T11:46:32;8.90;99.90
14511;DHT22;7341;50.930;4.038;2022-12-26T11:49:01;9.00;99.90
14511;DHT22;7341;50.930;4.038;2022-12-26T11:51:39;9.00;99.90
14511;DHT22;7341;50.930;4.038;2022-12-26T11:54:24;9.00;99.90
14511;DHT22;7341;50.930;4.038;2022-12-26T11:57:14;9.10;99.90
14511;DHT22;7341;50.930;4.038;2022-12-26T11:59:43;9.10;99.90
14511;DHT22;7341;50.930;4.038;2022-12-26T12:02:28;9.00;99.90
14511;DHT22;7341;50.930;4.038;2022-12-26T12:05:08;9.00;99.90
14511;DHT22;7341;50.930;4.038;2022-12-26T12:08:00;8.90;99.90
14511;DHT22;7341;50.930;4.038;2022-12-26T12:10:50;8.90;99.90
14511;DHT22;7341;50.930;4.038;2022-12-26T12:13:45;8.90;99.90
14511;DHT22;7341;50.930;4.038;2022-12-26T12:16:30;8.70;99.90
14511;DHT22;7341;50.930;4.038;2022-12-26T12:19:10;8.80;99.90
14511;DHT22;7341;50.930;4.038;2022-12-26T12:21:43;8.60;99.90
14511;DHT22;7341;50.930;4.038;2022-12-26T12:24:30;8.60;99.90
14511;DHT22;7341;50.930;4.038;2022-12-26T12:27:08;8.80;99.90
14511;DHT22;7341;50.930;4.038;2022-12-26T12:29:52;8.80;99.90
14511;DHT22;7341;50.930;4.038;2022-12-26T12:32:26;8.80;99.90
14511;DHT22;7341;50.930;4.038;2022-12-26T12:35:19;8.80;99.90
14511;DHT22;7341;50.930;4.038;2022-12-26T12:38:05;8.80;99.90
14511;DHT22;7341;50.930;4.038;2022-12-26T12:40:45;8.80;99.90
14511;DHT22;7341;50.930;4.038;2022-12-26T12:43:18;8.80;99.90
14511;DHT22;7341;50.930;4.038;2022-12-26T12:45:55;8.60;99.90
14511;DHT22;7341;50.930;4.038;2022-12-26T12:48:48;8.60;99.90
14511;DHT22;7341;50.930;4.038;2022-12-26T12:51:24;8.70;99.90
14511;DHT22;7341;50.930;4.038;2022-12-26T12:54:23;8.50;99.90
14511;DHT22;7341;50.930;4.038;2022-12-26T12:56:58;8.50;99.90
14511;DHT22;7341;50.930;4.038;2022-12-26T12:59:38;8.40;99.90
14511;DHT22;7341;50.930;4.038;2022-12-26T13:02:22;8.50;99.90
14511;DHT22;7341;50.930;4.038;2022-12-26T13:04:57;8.50;99.90
14511;DHT22;7341;50.930;4.038;2022-12-26T13:07:31;8.50;99.90
14511;DHT22;7341;50.930;4.038;2022-12-26T13:10:03;8.50;99.90
14511;DHT22;7341;50.930;4.038;2022-12-26T13:12:48;8.40;99.90
14511;DHT22;7341;50.930;4.038;2022-12-26T13:15:28;8.40;99.90
14511;DHT22;7341;50.930;4.038;2022-12-26T13:18:06;8.40;99.90
14511;DHT22;7341;50.930;4.038;2022-12-26T13:20:39;8.60;99.90
14511;DHT22;7341;50.930;4.038;2022-12-26T13:23:12;8.30;99.90
14511;DHT22;7341;50.930;4.038;2022-12-26T13:26:05;8.20;99.90
14511;DHT22;7341;50.930;4.038;2022-12-26T13:28:37;8.30;99.90
14511;DHT22;7341;50.930;4.038;2022-12-26T13:31:06;8.40;99.90
14511;DHT22;7341;50.930;4.038;2022-12-26T13:33:43;8.40;99.90
14511;DHT22;7341;50.930;4.038;2022-12-26T13:42:29;8.20;99.90
14511;DHT22;7341;50.930;4.038;2022-12-26T13:45:47;8.20;99.90
14511;DHT22;7341;50.930;4.038;2022-12-26T13:54:25;8.00;99.90
14511;DHT22;7341;50.930;4.038;2022-12-26T14:00:17;8.00;99.90
14511;DHT22;7341;50.930;4.038;2022-12-26T14:08:57;7.80;99.90
14511;DHT22;7341;50.930;4.038;2022-12-26T14:11:59;7.70;99.90
14511;DHT22;7341;50.930;4.038;2022-12-26T14:14:42;7.70;99.90
14511;DHT22;7341;50.930;4.038;2022-12-26T14:17:19;7.50;99.90
14511;DHT22;7341;50.930;4.038;2022-12-26T14:19:59;7.40;99.90
14511;DHT22;7341;50.930;4.038;2022-12-26T14:22:39;7.30;99.90
14511;DHT22;7341;50.930;4.038;2022-12-26T14:25:15;7.30;99.90
14511;DHT22;7341;50.930;4.038;2022-12-26T14:27:52;7.30;99.90
14511;DHT22;7341;50.930;4.038;2022-12-26T14:30:31;7.20;99.90
14511;DHT22;7341;50.930;4.038;2022-12-26T14:33:23;7.10;99.90
14511;DHT22;7341;50.930;4.038;2022-12-26T14:36:04;7.10;99.90
14511;DHT22;7341;50.930;4.038;2022-12-26T14:38:43;7.10;99.90
14511;DHT22;7341;50.930;4.038;2022-12-26T14:41:16;7.10;99.90
14511;DHT22;7341;50.930;4.038;2022-12-26T14:44:11;7.10;99.90
14511;DHT22;7341;50.930;4.038;2022-12-26T14:47:07;7.10;99.90
14511;DHT22;7341;50.930;4.038;2022-12-26T14:52:45;7.20;99.90
14511;DHT22;7341;50.930;4.038;2022-12-26T14:55:45;7.10;99.90
14511;DHT22;7341;50.930;4.038;2022-12-26T14:58:27;7.00;99.90
14511;DHT22;7341;50.930;4.038;2022-12-26T15:04:04;7.10;99.90
14511;DHT22;7341;50.930;4.038;2022-12-26T15:07:04;7.10;99.90
14511;DHT22;7341;50.930;4.038;2022-12-26T15:13:17;7.00;99.90
14511;DHT22;7341;50.930;4.038;2022-12-26T15:16:11;7.00;99.90
14511;DHT22;7341;50.930;4.038;2022-12-26T15:19:20;7.00;99.90
14511;DHT22;7341;50.930;4.038;2022-12-26T15:25:31;6.80;99.90
14511;DHT22;7341;50.930;4.038;2022-12-26T15:28:34;6.80;99.90
14511;DHT22;7341;50.930;4.038;2022-12-26T15:31:34;6.80;99.90
14511;DHT22;7341;50.930;4.038;2022-12-26T15:34:16;6.80;99.90
14511;DHT22;7341;50.930;4.038;2022-12-26T15:36:53;6.70;99.90
14511;DHT22;7341;50.930;4.038;2022-12-26T15:39:26;6.60;99.90
14511;DHT22;7341;50.930;4.038;2022-12-26T15:42:11;6.60;99.90
14511;DHT22;7341;50.930;4.038;2022-12-26T15:44:50;6.70;99.90
14511;DHT22;7341;50.930;4.038;2022-12-26T15:47:36;6.60;99.90
14511;DHT22;7341;50.930;4.038;2022-12-26T15:50:26;6.60;99.90
14511;DHT22;7341;50.930;4.038;2022-12-26T15:53:11;6.70;99.90
14511;DHT22;7341;50.930;4.038;2022-12-26T15:56:02;6.70;99.90
14511;DHT22;7341;50.930;4.038;2022-12-26T15:58:50;6.70;99.90
14511;DHT22;7341;50.930;4.038;2022-12-26T16:01:39;6.70;99.90
14511;DHT22;7341;50.930;4.038;2022-12-26T16:04:16;6.70;99.90
14511;DHT22;7341;50.930;4.038;2022-12-26T16:07:06;6.70;99.90
14511;DHT22;7341;50.930;4.038;2022-12-26T16:09:54;6.50;99.90
14511;DHT22;7341;50.930;4.038;2022-12-26T16:12:27;6.50;99.90
14511;DHT22;7341;50.930;4.038;2022-12-26T16:15:13;6.40;99.90
14511;DHT22;7341;50.930;4.038;2022-12-26T16:17:45;6.40;99.90
14511;DHT22;7341;50.930;4.038;2022-12-26T16:24:20;6.30;99.90
14511;DHT22;7341;50.930;4.038;2022-12-26T16:27:25;6.20;99.90
14511;DHT22;7341;50.930;4.038;2022-12-26T16:37:13;6.20;99.90
14511;DHT22;7341;50.930;4.038;2022-12-26T17:01:11;6.00;99.90
14511;DHT22;7341;50.930;4.038;2022-12-26T17:03:59;5.90;99.90
14511;DHT22;7341;50.930;4.038;2022-12-26T17:56:49;5.60;99.90
14511;DHT22;7341;50.930;4.038;2022-12-26T17:59:39;5.60;99.90
14511;DHT22;7341;50.930;4.038;2022-12-26T18:02:49;5.60;99.90
14511;DHT22;7341;50.930;4.038;2022-12-26T18:06:13;5.50;99.90
14511;DHT22;7341;50.930;4.038;2022-12-26T18:19:35;5.70;99.90
14511;DHT22;7341;50.930;4.038;2022-12-26T18:22:49;5.50;99.90
14511;DHT22;7341;50.930;4.038;2022-12-26T18:25:32;5.60;99.90
14511;DHT22;7341;50.930;4.038;2022-12-26T18:28:16;5.50;99.90
14511;DHT22;7341;50.930;4.038;2022-12-26T18:31:15;5.60;99.90
14511;DHT22;7341;50.930;4.038;2022-12-26T18:34:07;5.50;99.90
14511;DHT22;7341;50.930;4.038;2022-12-26T18:44:09;5.30;99.90
14511;DHT22;7341;50.930;4.038;2022-12-26T18:46:49;5.40;99.90
14511;DHT22;7341;50.930;4.038;2022-12-26T18:49:39;5.30;99.90
14511;DHT22;7341;50.930;4.038;2022-12-26T18:53:11;5.30;99.90
14511;DHT22;7341;50.930;4.038;2022-12-26T18:58:59;5.40;99.90
14511;DHT22;7341;50.930;4.038;2022-12-26T19:22:21;5.30;99.90
14511;DHT22;7341;50.930;4.038;2022-12-26T19:25:10;5.30;99.90
14511;DHT22;7341;50.930;4.038;2022-12-26T19:27:49;5.30;99.90
14511;DHT22;7341;50.930;4.038;2022-12-26T19:30:28;5.30;99.90
14511;DHT22;7341;50.930;4.038;2022-12-26T19:36:16;5.40;99.90
14511;DHT22;7341;50.930;4.038;2022-12-26T19:39:02;5.70;99.90
14511;DHT22;7341;50.930;4.038;2022-12-26T19:41:36;5.40;99.90
14511;DHT22;7341;50.930;4.038;2022-12-26T19:44:10;5.50;99.90
14511;DHT22;7341;50.930;4.038;2022-12-26T19:46:43;5.50;99.90
14511;DHT22;7341;50.930;4.038;2022-12-26T19:49:13;5.50;99.90
14511;DHT22;7341;50.930;4.038;2022-12-26T19:52:22;5.50;99.90
14511;DHT22;7341;50.930;4.038;2022-12-26T20:01:46;5.50;99.90
14511;DHT22;7341;50.930;4.038;2022-12-26T20:18:19;5.40;99.90
14511;DHT22;7341;50.930;4.038;2022-12-26T20:24:26;5.30;99.90
14511;DHT22;7341;50.930;4.038;2022-12-26T20:27:18;5.30;99.90
14511;DHT22;7341;50.930;4.038;2022-12-26T20:30:04;5.30;99.90
14511;DHT22;7341;50.930;4.038;2022-12-26T20:35:48;5.30;99.90
14511;DHT22;7341;50.930;4.038;2022-12-26T20:38:25;5.30;99.90
14511;DHT22;7341;50.930;4.038;2022-12-26T20:41:23;5.30;99.90
14511;DHT22;7341;50.930;4.038;2022-12-26T20:47:42;5.20;99.90
14511;DHT22;7341;50.930;4.038;2022-12-26T20:51:19;5.10;99.90
14511;DHT22;7341;50.930;4.038;2022-12-26T20:54:20;5.10;99.90
14511;DHT22;7341;50.930;4.038;2022-12-26T20:56:51;5.00;99.90
14511;DHT22;7341;50.930;4.038;2022-12-26T20:59:53;5.10;99.90
14511;DHT22;7341;50.930;4.038;2022-12-26T21:09:53;5.10;99.90
14511;DHT22;7341;50.930;4.038;2022-12-26T21:12:41;5.10;99.90
14511;DHT22;7341;50.930;4.038;2022-12-26T21:19:32;5.00;99.90
14511;DHT22;7341;50.930;4.038;2022-12-26T21:22:20;5.00;99.90
14511;DHT22;7341;50.930;4.038;2022-12-26T21:25:04;5.00;99.90
14511;DHT22;7341;50.930;4.038;2022-12-26T21:30:53;5.10;99.90
14511;DHT22;7341;50.930;4.038;2022-12-26T21:34:00;5.10;99.90